createdAt,value
2023-12-09T00:02:11.436Z,78.92
2023-12-09T00:07:14.484Z,78.90
2023-12-09T00:12:18.817Z,78.67
2023-12-09T00:17:23.254Z,78.44
2023-12-09T00:22:26.351Z,78.16
2023-12-09T00:27:29.528Z,77.55
2023-12-09T00:32:33.921Z,76.42
2023-12-09T00:37:36.883Z,77.19
2023-12-09T00:42:39.903Z,77.69
2023-12-09T00:47:44.405Z,76.61
2023-12-09T00:52:47.346Z,76.86
2023-12-09T00:57:50.256Z,76.21
2023-12-09T01:02:54.742Z,76.34
2023-12-09T01:07:58.012Z,76.45
2023-12-09T01:13:00.921Z,76.46
2023-12-09T01:18:05.328Z,76.81
2023-12-09T01:23:09.740Z,77.79
2023-12-09T01:28:12.695Z,78.11
2023-12-09T01:33:17.109Z,79.24
2023-12-09T01:38:20.099Z,80.04
2023-12-09T01:43:23.321Z,80.33
2023-12-09T01:48:28.184Z,79.98
2023-12-09T01:53:32.149Z,81.39
2023-12-09T01:58:37.088Z,82.24
2023-12-09T02:03:42.491Z,83.03
2023-12-09T02:08:45.456Z,81.72
2023-12-09T02:13:57.642Z,82.25
2023-12-09T02:19:03.193Z,82.66
2023-12-09T02:24:07.926Z,82.82
2023-12-09T02:29:11.401Z,83.31
2023-12-09T02:34:15.955Z,84.85
2023-12-09T02:39:21.681Z,84.92
2023-12-09T02:44:24.944Z,83.96
2023-12-09T02:49:27.992Z,84.32
2023-12-09T02:54:32.341Z,83.76
2023-12-09T02:59:35.301Z,83.63
2023-12-09T03:04:38.289Z,84.10
2023-12-09T03:09:42.650Z,84.77
2023-12-09T03:14:45.593Z,84.05
2023-12-09T03:19:48.591Z,85.11
2023-12-09T03:24:52.906Z,86.51
2023-12-09T03:29:55.834Z,87.10
2023-12-09T03:34:58.811Z,88.01
2023-12-09T03:40:03.655Z,88.05
2023-12-09T03:45:07.788Z,88.12
2023-12-09T03:50:11.383Z,88.33
2023-12-09T03:55:17.826Z,88.45
2023-12-09T04:00:21.495Z,88.77
2023-12-09T04:05:24.634Z,88.42
2023-12-09T04:10:29.081Z,87.44
2023-12-09T04:15:32.124Z,87.55
2023-12-09T04:20:35.550Z,88.02
2023-12-09T04:25:39.818Z,87.92
2023-12-09T04:30:42.728Z,87.74
2023-12-09T04:35:46.176Z,87.85
2023-12-09T04:40:50.527Z,88.38
2023-12-09T04:45:54.400Z,88.97
2023-12-09T04:50:57.350Z,88.79
2023-12-09T04:56:01.624Z,89.78
2023-12-09T05:01:05.020Z,90.72
2023-12-09T05:06:09.728Z,90.39
2023-12-09T05:11:14.070Z,91.28
2023-12-09T05:16:16.978Z,91.57
2023-12-09T05:21:20.001Z,92.03
2023-12-09T05:26:24.725Z,93.79
2023-12-09T05:31:27.708Z,94.17
2023-12-09T05:36:30.763Z,94.50
2023-12-09T05:41:35.133Z,94.72
2023-12-09T05:46:38.262Z,94.69
2023-12-09T05:51:43.251Z,95.24
2023-12-09T05:56:51.053Z,95.92
2023-12-09T06:01:54.095Z,96.47
2023-12-09T06:06:57.043Z,97.77
2023-12-09T06:12:01.444Z,98.82
2023-12-09T06:17:04.713Z,98.85
2023-12-09T06:22:07.632Z,98.49
2023-12-09T06:27:11.999Z,99.65
2023-12-09T06:32:15.395Z,99.40
2023-12-09T06:37:18.967Z,99.41
2023-12-09T06:42:23.282Z,100.00
2023-12-09T06:47:26.546Z,99.86
2023-12-09T06:52:29.682Z,100.00
2023-12-09T06:57:34.249Z,100.00
2023-12-09T07:02:48.480Z,100.00
2023-12-09T07:07:59.462Z,100.00
2023-12-09T07:13:04.484Z,100.00
2023-12-09T07:18:07.518Z,100.00
2023-12-09T07:23:10.646Z,100.00
2023-12-09T07:28:14.980Z,100.00
2023-12-09T07:33:18.466Z,100.00
2023-12-09T07:38:21.560Z,100.00
2023-12-09T07:43:27.228Z,100.00
2023-12-09T07:48:30.569Z,100.00
2023-12-09T07:53:33.533Z,100.00
2023-12-09T07:58:37.786Z,99.77
2023-12-09T08:03:40.857Z,99.30
2023-12-09T08:08:43.818Z,100.00
2023-12-09T08:13:48.387Z,100.00
2023-12-09T08:18:51.454Z,99.63
2023-12-09T08:23:55.482Z,99.18
2023-12-09T08:28:59.820Z,97.63
2023-12-09T08:34:02.800Z,96.82
2023-12-09T08:39:05.908Z,97.33
2023-12-09T08:44:10.178Z,95.61
2023-12-09T08:49:13.236Z,96.53
2023-12-09T08:54:16.826Z,98.76
2023-12-09T08:59:21.115Z,96.48
2023-12-09T09:04:24.089Z,98.58
2023-12-09T09:09:27.052Z,96.48
2023-12-09T09:14:31.361Z,99.88
2023-12-09T09:19:34.335Z,98.11
2023-12-09T09:24:37.874Z,97.56
2023-12-09T09:29:42.255Z,96.18
2023-12-09T09:34:45.520Z,95.11
2023-12-09T09:39:48.789Z,94.73
2023-12-09T09:45:02.382Z,94.93
2023-12-09T09:50:07.036Z,93.48
2023-12-09T09:55:11.042Z,92.63
2023-12-09T10:00:17.765Z,92.57
2023-12-09T10:05:21.637Z,91.96
2023-12-09T10:10:24.991Z,92.11
2023-12-09T10:15:29.381Z,91.71
2023-12-09T10:20:32.736Z,88.71
2023-12-09T10:25:35.971Z,87.72
2023-12-09T10:30:40.469Z,89.49
2023-12-09T10:35:43.594Z,89.38
2023-12-09T10:40:46.514Z,88.80
2023-12-09T10:45:50.914Z,88.28
2023-12-09T10:50:54.136Z,87.76
2023-12-09T10:55:57.964Z,86.81
2023-12-09T11:01:03.514Z,85.79
2023-12-09T11:06:09.110Z,86.54
2023-12-09T11:11:12.752Z,85.90
2023-12-09T11:16:20.410Z,85.30
2023-12-09T11:21:27.189Z,84.63
2023-12-09T11:26:31.758Z,83.77
2023-12-09T11:31:38.852Z,83.13
2023-12-09T11:36:42.619Z,83.43
2023-12-09T11:41:46.641Z,82.06
2023-12-09T11:46:50.981Z,81.80
2023-12-09T11:51:53.965Z,81.74
2023-12-09T11:56:56.935Z,81.37
2023-12-09T12:02:02.021Z,81.04
2023-12-09T12:07:05.269Z,79.55
2023-12-09T12:12:08.814Z,76.84
2023-12-09T12:17:16.515Z,73.27
2023-12-09T12:22:20.669Z,69.22
2023-12-09T12:27:25.843Z,65.42
2023-12-09T12:32:31.419Z,62.21
2023-12-09T12:37:34.794Z,60.82
2023-12-09T12:42:38.133Z,61.48
2023-12-09T12:47:42.596Z,61.89
2023-12-09T12:52:47.011Z,62.28
2023-12-09T12:57:50.153Z,62.09
2023-12-09T13:02:54.506Z,64.03
2023-12-09T13:07:57.544Z,67.42
2023-12-09T13:13:01.018Z,71.74
2023-12-09T13:18:07.874Z,72.02
2023-12-09T13:23:11.098Z,74.74
2023-12-09T13:28:14.194Z,76.23
2023-12-09T20:48:24.197Z,100.00
2023-12-09T20:53:27.203Z,100.00
2023-12-09T20:58:30.930Z,100.00
2023-12-09T21:03:35.390Z,100.00
2023-12-09T21:08:40.432Z,100.00
2023-12-09T21:13:43.573Z,100.00
2023-12-09T21:18:48.607Z,100.00
2023-12-09T21:23:51.614Z,100.00
2023-12-09T21:28:54.609Z,100.00
2023-12-09T21:33:59.035Z,100.00
2023-12-09T21:39:02.081Z,100.00
2023-12-09T21:44:05.134Z,100.00
2023-12-09T21:49:09.542Z,100.00
2023-12-09T21:54:12.599Z,100.00
2023-12-09T21:59:15.629Z,100.00
2023-12-09T22:04:20.115Z,100.00
2023-12-09T22:09:23.650Z,100.00
2023-12-09T22:14:26.661Z,100.00
2023-12-09T22:19:31.117Z,100.00
2023-12-09T22:24:34.167Z,100.00
2023-12-09T22:29:37.253Z,100.00
2023-12-09T22:34:41.811Z,100.00
2023-12-09T22:39:44.948Z,100.00
2023-12-09T22:44:48.027Z,100.00
2023-12-09T22:49:52.570Z,100.00
2023-12-09T22:54:55.596Z,100.00
2023-12-09T22:59:58.855Z,100.00
2023-12-09T23:05:03.243Z,100.00
2023-12-09T23:10:07.190Z,100.00
2023-12-09T23:15:11.721Z,100.00
2023-12-09T23:20:16.251Z,100.00
2023-12-09T23:25:19.209Z,100.00
2023-12-09T23:30:22.435Z,100.00
2023-12-09T23:35:26.822Z,100.00
2023-12-09T23:40:29.788Z,100.00
2023-12-09T23:45:32.884Z,100.00
2023-12-09T23:50:37.302Z,100.00
2023-12-09T23:55:40.809Z,100.00
